Decoded Metar for K2G4 (GARRETT CO in MD, USA) (IATA:2G4) | Meteo·Mobile Aviation Weather
aviador You're here:

K2G4 Decoded Metar

GARRETT CO in MD, USA
Report Time2019-06-17 15:15:00
UTC Time2019-06-17 15:17:55
Flight Rules lifr LIFR
WindCalm
Visibility9999 m
Phenomena:N/A
Clouds:Overcast 003 Hf
Ceiling300 ft
Temp16°C (ISA +7)
Dew Point16°C (100% RH)
QNH1019 hPa
Density Alt3,786 ft
Elevation2,933 ft
Report Wrong Elevation
Raw Report
K2G4 171515Z AUTO 00000KT 10SM OVC003 16/16 A3010 RMK AO1=

Extra information for K2G4:More info

Metar Taf Metar & Taf Last 4 Metars F.Rules Stats Wind Profile Meteogram Temp Stats Airport Information Weather charts Add Link Nearby VenuesMetar ALERT Operation Metar Decoded Social comments

AIRNAV info for K2G4